EW9311 Weather Reports


Display with metric or nautical units.
time (UTC)temp
F
wind
direction
speed
MPH
gust
MPH
rain 1hr
in
rain 24hr
in
rain mn
in
humidity
%
barometer
mb
20240623101554 62 195 2.0 3.0 0.00 0.00 0.00 64 1005.5
20240623101517 62 175 2.0 4.0 0.00 0.00 0.00 64 1008.9
20240623100053 62 182 2.0 5.0 0.00 0.00 0.00 64 1005.4
20240623100015 62 162 2.0 5.0 0.00 0.00 0.00 64 1008.8
20240623094600 62 169 2.0 3.0 0.00 0.00 0.00 64 1005.4
20240623094516 62 148 2.0 4.0 0.00 0.00 0.00 63 1008.8
20240623093100 63 178 0.0 0.0 0.00 0.00 0.00 62 1005.4
20240623093012 63 0 0.0 0.0 0.00 0.00 0.00 61 1008.7
20240623091547 63 179 0.0 0.0 0.00 0.00 0.00 61 1005.4
20240623091511 64 0 0.0 0.0 0.00 0.00 0.00 61 1008.7
20240623090043 64 177 2.0 6.0 0.00 0.00 0.00 60 1005.4
20240623090014 64 155 3.0 6.0 0.00 0.00 0.00 59 1008.7
20240623084552 65 210 2.0 7.0 0.00 0.00 0.00 59 1005.4
20240623084517 65 190 3.0 8.0 0.00 0.00 0.00 59 1008.7
20240623083043 64 174 1.0 7.0 0.00 0.00 0.00 61 1005.2
20240623083015 64 0 1.0 7.0 0.00 0.00 0.00 60 1008.7
20240623081539 64 174 3.0 6.0 0.00 0.00 0.00 62 1005.3
20240623081513 64 155 2.0 6.0 0.00 0.00 0.00 61 1008.7
20240623080040 64 177 3.0 6.0 0.00 0.00 0.00 61 1005.3
20240623080013 64 158 2.0 6.0 0.00 0.00 0.00 61 1008.7
20240623074535 65 169 3.0 7.0 0.00 0.00 0.00 61 1005.3
20240623074524 65 145 3.0 7.0 0.00 0.00 0.00 60 1008.8
20240623073035 65 180 2.0 4.0 0.00 0.00 0.00 62 1005.2
20240623073020 65 159 2.0 4.0 0.00 0.00 0.00 61 1008.7
20240623071530 66 180 0.0 3.0 0.00 0.00 0.00 59 1005.2
20240623071520 66 0 1.0 4.0 0.00 0.00 0.00 58 1008.7
20240623070025 67 190 1.0 3.0 0.00 0.00 0.00 55 1005.2
20240623070015 67 169 1.0 4.0 0.00 0.00 0.00 54 1008.7
20240623064524 68 242 0.0 5.0 0.00 0.00 0.00 51 1005.2
20240623064512 68 0 0.0 6.0 0.00 0.00 0.00 51 1008.8
20240623063023 68 183 2.0 5.0 0.00 0.00 0.00 52 1005.2
20240623063015 68 162 2.0 5.0 0.00 0.00 0.00 52 1008.7
20240623061521 69 207 0.0 4.0 0.00 0.00 0.00 53 1005.1
20240623061512 69 0 0.0 4.0 0.00 0.00 0.00 52 1008.7
20240623060032 69 200 2.0 6.0 0.00 0.00 0.00 52 1005.1
20240623060020 69 198 2.0 6.0 0.00 0.00 0.00 51 1008.6
20240623054533 69 205 0.0 4.0 0.00 0.00 0.00 52 1005.1
20240623054511 69 184 1.0 4.0 0.00 0.00 0.00 52 1008.7
20240623053030 70 178 2.0 7.0 0.00 0.00 0.00 50 1008.7
20240623053021 70 199 2.0 7.0 0.00 0.00 0.00 51 1005.1
20240623051526 70 0 2.0 7.0 0.00 0.00 0.00 49 1008.5
20240623051523 70 245 3.0 7.0 0.00 0.00 0.00 50 1005.0
20240623050022 72 236 1.0 8.0 0.00 0.00 0.00 50 1004.9
20240623050014 72 217 1.0 8.0 0.00 0.00 0.00 50 1008.5
20240623044517 72 255 2.0 6.0 0.00 0.00 0.00 51 1004.8
20240623044515 72 234 3.0 9.0 0.00 0.00 0.00 50 1008.3
20240623043021 73 282 3.0 7.0 0.00 0.00 0.00 51 1004.8
20240623043016 73 261 3.0 8.0 0.00 0.00 0.00 50 1008.3
20240623041514 73 225 2.0 8.0 0.00 0.00 0.00 49 1008.3
20240623041512 73 227 3.0 6.0 0.00 0.00 0.00 50 1004.8
20240623040013 73 259 2.0 7.0 0.00 0.00 0.00 49 1008.2
20240623034512 72 244 1.0 4.0 0.00 0.00 0.00 51 1008.3
20240623033023 72 249 2.0 5.0 0.00 0.00 0.00 52 1008.4
20240623033011 72 271 2.0 4.0 0.00 0.00 0.00 52 1004.9
20240623031515 73 248 2.0 5.0 0.00 0.00 0.00 52 1008.4
20240623031507 73 276 1.0 5.0 0.00 0.00 0.00 53 1004.9
20240623030015 73 275 1.0 9.0 0.00 0.00 0.00 53 1008.3
20240623030007 73 296 1.0 9.0 0.00 0.00 0.00 53 1004.8
20240623024514 74 222 3.0 9.0 0.00 0.00 0.00 51 1008.3
20240623024508 74 243 3.0 9.0 0.00 0.00 0.00 51 1004.9
20240623023014 75 269 2.0 11.0 0.00 0.00 0.00 52 1008.5
20240623023006 75 288 2.0 10.0 0.00 0.00 0.00 52 1004.9
20240623021518 75 279 3.0 10.0 0.00 0.00 0.00 53 1008.3
20240623021507 75 302 3.0 10.0 0.00 0.00 0.00 53 1004.8
20240623020104 76 257 4.0 9.0 0.00 0.00 0.00 53 1004.8
20240623020021 76 289 3.0 12.0 0.00 0.00 0.00 54 1008.3
20240623014515 76 271 3.0 13.0 0.00 0.00 0.00 53 1008.3
20240623014502 76 277 3.0 12.0 0.00 0.00 0.00 54 1004.8
20240623013100 77 280 3.0 10.0 0.00 0.00 0.00 52 1004.7
20240623013013 77 0 1.0 8.0 0.00 0.00 0.00 51 1008.2
20240623011625 77 296 2.0 10.0 0.00 0.00 0.00 50 1004.9
20240623011514 76 222 2.0 10.0 0.00 0.00 0.00 50 1008.3
20240623010059 77 261 4.0 7.0 0.00 0.00 0.00 50 1004.9
20240623010013 77 247 2.0 8.0 0.00 0.00 0.00 49 1008.3
20240623004555 76 296 3.0 9.0 0.00 0.00 0.00 50 1005.0
20240623004515 76 267 2.0 9.0 0.00 0.00 0.00 49 1008.2
20240623003058 75 281 3.0 11.0 0.00 0.00 0.00 52 1005.0
20240623003011 75 331 5.0 12.0 0.00 0.00 0.00 52 1008.3
20240623001551 75 271 3.0 8.0 0.00 0.00 0.00 52 1005.2
20240623001520 75 219 2.0 10.0 0.00 0.00 0.00 52 1008.5
20240623000019 75 300 3.0 8.0 0.00 0.00 0.00 50 1005.2
20240623000015 75 315 3.0 8.0 0.00 0.00 0.00 50 1008.6
20240622234518 75 237 5.0 11.0 0.00 0.00 0.00 53 1005.2
20240622234514 75 260 4.0 11.0 0.00 0.00 0.00 53 1008.5
20240622233013 74 265 3.0 7.0 0.00 0.00 0.00 53 1008.6
20240622233010 74 288 3.0 7.0 0.00 0.00 0.00 54 1005.2
20240622231512 73 229 4.0 8.0 0.00 0.00 0.00 53 1008.6
20240622231509 73 250 4.0 8.0 0.00 0.00 0.00 53 1005.4
20240622230015 73 360 2.0 10.0 0.00 0.00 0.00 54 1008.6
20240622230008 73 21 2.0 10.0 0.00 0.00 0.00 55 1005.3
20240622224518 73 303 4.0 10.0 0.00 0.00 0.00 53 1005.5
20240622224515 73 282 3.0 10.0 0.00 0.00 0.00 53 1008.7
20240622223014 73 300 3.0 8.0 0.00 0.00 0.00 51 1008.8
20240622223003 73 307 3.0 8.0 0.00 0.00 0.00 52 1005.5
20240622221514 72 230 3.0 11.0 0.00 0.00 0.00 52 1008.9
20240622221500 72 259 2.0 10.0 0.00 0.00 0.00 52 1005.5
20240622220112 72 292 5.0 10.0 0.00 0.00 0.00 52 1005.6
20240622220037 72 327 5.0 10.0 0.00 0.00 0.00 51 1008.9
20240622214557 71 170 1.0 8.0 0.00 0.00 0.00 51 1005.6
20240622214514 71 149 2.0 8.0 0.00 0.00 0.00 50 1009.0
20240622213100 70 254 3.0 8.0 0.00 0.00 0.00 53 1005.7
20240622213017 70 260 2.0 8.0 0.00 0.00 0.00 52 1009.1
20240622211552 69 16 3.0 9.0 0.00 0.00 0.00 54 1005.7
20240622211515 69 334 5.0 9.0 0.00 0.00 0.00 53 1009.1
20240622210226 69 264 3.0 8.0 0.00 0.00 0.00 53 1009.1
20240622210053 69 297 3.0 8.0 0.00 0.00 0.00 54 1005.8
20240622204549 69 329 3.0 9.0 0.00 0.00 0.00 54 1005.7
20240622204514 68 294 1.0 8.0 0.00 0.00 0.00 54 1009.0
20240622203038 68 254 1.0 8.0 0.00 0.00 0.00 52 1005.9
20240622203015 68 230 1.0 8.0 0.00 0.00 0.00 52 1009.3
20240622201535 68 261 3.0 7.0 0.00 0.00 0.00 52 1005.9
20240622201514 68 259 2.0 7.0 0.00 0.00 0.00 51 1009.3
20240622200101 67 325 1.0 5.0 0.00 0.00 0.00 53 1006.0
20240622200015 67 0 2.0 5.0 0.00 0.00 0.00 52 1009.4
20240622194530 66 334 0.0 8.0 0.00 0.00 0.00 53 1006.0
20240622194521 66 0 1.0 8.0 0.00 0.00 0.00 53 1009.6
20240622193028 66 238 2.0 7.0 0.00 0.00 0.00 54 1006.2
20240622193015 66 216 3.0 8.0 0.00 0.00 0.00 53 1009.7
20240622191527 66 292 3.0 8.0 0.00 0.00 0.00 53 1006.2
20240622191514 66 254 3.0 8.0 0.00 0.00 0.00 52 1009.7
20240622190027 66 226 3.0 7.0 0.00 0.00 0.00 53 1006.3
20240622190015 66 211 2.0 6.0 0.00 0.00 0.00 53 1009.7
20240622184541 66 352 2.0 7.0 0.00 0.00 0.00 53 1006.3
20240622184515 66 344 2.0 7.0 0.00 0.00 0.00 53 1009.8
20240622183023 66 292 3.0 8.0 0.00 0.00 0.00 53 1006.4
20240622183015 66 267 2.0 8.0 0.00 0.00 0.00 52 1009.8
20240622181535 65 262 1.0 5.0 0.00 0.00 0.00 54 1006.5
20240622181515 65 245 1.0 7.0 0.00 0.00 0.00 54 1009.8
20240622180023 65 324 3.0 5.0 0.00 0.00 0.00 55 1006.4
20240622180019 65 303 3.0 6.0 0.00 0.00 0.00 55 1009.9
20240622174522 64 334 2.0 5.0 0.00 0.00 0.00 54 1006.5
20240622174514 64 314 2.0 6.0 0.00 0.00 0.00 54 1009.9
20240622173054 66 170 0.0 3.0 0.00 0.00 0.00 53 1006.5
20240622173016 66 0 0.0 1.0 0.00 0.00 0.00 52 1009.7
20240622171604 65 159 0.0 3.0 0.00 0.00 0.00 55 1006.5
20240622171526 65 0 0.0 4.0 0.00 0.00 0.00 55 1010.0
20240622170049 64 196 1.0 3.0 0.00 0.00 0.00 58 1006.6
20240622170016 64 164 1.0 4.0 0.00 0.00 0.00 56 1010.1
20240622164548 63 283 0.0 0.0 0.00 0.00 0.00 59 1006.6
20240622164513 63 0 0.0 0.0 0.00 0.00 0.00 59 1009.9
20240622163049 61 280 0.0 0.0 0.00 0.00 0.00 63 1006.7
20240622163016 61 0 0.0 0.0 0.00 0.00 0.00 62 1010.0
20240622161547 61 280 0.0 0.0 0.00 0.00 0.00 63 1006.8
20240622161519 61 0 0.0 0.0 0.00 0.00 0.00 62 1010.1
20240622160022 60 0 0.0 0.0 0.00 0.00 0.00 64 1010.0
20240622160018 60 330 0.0 0.0 0.00 0.00 0.00 65 1006.8
20240622154525 60 0 0.0 0.0 0.00 0.00 0.00 65 1010.1
20240622154516 60 232 0.0 0.0 0.00 0.00 0.00 66 1006.9
20240622153020 59 211 1.0 3.0 0.00 0.00 0.00 65 1010.1
20240622153014 59 232 1.0 3.0 0.00 0.00 0.00 65 1006.9
20240622151518 60 0 0.0 2.0 0.00 0.00 0.00 64 1010.2
20240622151514 60 180 0.0 2.0 0.00 0.00 0.00 65 1006.9
20240622150013 60 180 0.0 2.0 0.00 0.00 0.00 65 1007.0
20240622144514 59 0 0.0 0.0 0.00 0.00 0.00 65 1010.2
20240622144512 59 180 0.0 0.0 0.00 0.00 0.00 66 1006.9
20240622143016 57 0 0.0 0.0 0.00 0.00 0.00 67 1010.2
20240622143010 57 180 0.0 0.0 0.00 0.00 0.00 68 1006.9
20240622141517 56 180 0.0 0.0 0.00 0.00 0.00 71 1006.8
20240622141515 56 0 0.0 1.0 0.00 0.00 0.00 70 1010.1
20240622140019 55 180 1.0 2.0 0.00 0.00 0.00 71 1006.8
20240622140014 55 0 1.0 4.0 0.00 0.00 0.00 70 1010.0
20240622134548 54 159 1.0 4.0 0.00 0.00 0.00 72 1009.9
20240622134506 54 180 1.0 3.0 0.00 0.00 0.00 73 1006.8
20240622133011 53 159 2.0 4.0 0.00 0.00 0.00 72 1009.9
20240622133003 53 180 2.0 4.0 0.00 0.00 0.00 72 1006.8
20240622131516 53 159 1.0 4.0 0.00 0.00 0.00 72 1010.0
20240622131502 53 180 1.0 4.0 0.00 0.00 0.00 72 1006.8
20240622130101 53 180 1.0 3.0 0.00 0.00 0.00 72 1006.9
20240622130015 53 159 0.0 4.0 0.00 0.00 0.00 72 1010.1
20240622124600 53 180 2.0 4.0 0.00 0.00 0.00 73 1006.8
20240622124523 53 159 2.0 4.0 0.00 0.00 0.00 72 1010.0
20240622123057 54 180 1.0 2.0 0.00 0.00 0.00 72 1006.9
20240622123015 54 159 0.0 2.0 0.00 0.00 0.00 71 1010.2
20240622121526 54 180 2.0 4.0 0.00 0.00 0.00 71 1006.9
20240622121516 54 159 2.0 4.0 0.00 0.00 0.00 71 1010.2
20240622120023 55 180 2.0 3.0 0.00 0.00 0.00 69 1006.9
20240622120012 55 159 2.0 4.0 0.00 0.00 0.00 69 1010.2
20240622114557 55 181 2.0 3.0 0.00 0.00 0.00 70 1006.9
20240622114514 55 160 2.0 5.0 0.00 0.00 0.00 69 1010.2
20240622113050 56 182 2.0 5.0 0.00 0.00 0.00 68 1006.8
20240622113020 56 161 2.0 5.0 0.00 0.00 0.00 68 1010.3
20240622111548 57 187 3.0 3.0 0.00 0.00 0.00 67 1007.0
20240622111514 57 170 2.0 5.0 0.00 0.00 0.00 66 1010.5
20240622110053 58 190 2.0 5.0 0.00 0.00 0.00 66 1006.9
20240622110020 58 193 2.0 5.0 0.00 0.00 0.00 65 1010.4
20240622104557 58 185 2.0 6.0 0.00 0.00 0.00 66 1007.0
20240622104514 58 163 2.0 6.0 0.00 0.00 0.00 66 1010.4
20240622103101 59 199 1.0 5.0 0.00 0.00 0.00 66 1007.0
20240622103020 59 178 2.0 5.0 0.00 0.00 0.00 66 1010.3